Time;durP1;ratioP1;P1;durP2;ratioP2;P2;SDS_P1;SDS_P2;PMS_P1;PMS_P2;Temp;Humidity;BMP_temperature;BMP_pressure;BME280_temperature;BME280_humidity;BME280_pressure;Samples;Min_cycle;Max_cycle;Signal;HPM_P1;HPM_P2
2023/01/30 00:01:00;;;;;;;21.57;12.90;;;-0.50;1.00;;;;;;4990809;28;20214;-77
2023/01/30 00:03:26;;;;;;;22.20;12.20;;;-0.10;1.00;;;;;;4992164;28;20442;-78
2023/01/30 00:05:52;;;;;;;22.77;12.67;;;0.00;1.00;;;;;;4991335;28;20675;-77
2023/01/30 00:08:19;;;;;;;25.30;13.33;;;-0.40;1.00;;;;;;4992246;28;20477;-76
2023/01/30 00:10:45;;;;;;;22.60;13.03;;;0.10;1.00;;;;;;4989067;28;20190;-78
2023/01/30 00:13:13;;;;;;;22.40;12.97;;;-0.30;1.00;;;;;;4992062;28;20454;-78
2023/01/30 00:15:39;;;;;;;22.33;12.80;;;-0.20;1.00;;;;;;4991112;28;20435;-77
2023/01/30 00:18:04;;;;;;;22.27;11.53;;;0.50;1.00;;;;;;4991600;28;20588;-77
2023/01/30 00:20:30;;;;;;;25.77;13.17;;;0.10;1.00;;;;;;4990476;28;20657;-78
2023/01/30 00:22:57;;;;;;;25.73;10.40;;;0.20;1.00;;;;;;4990706;28;20207;-78
2023/01/30 00:25:23;;;;;;;22.93;11.53;;;0.30;1.00;;;;;;4992248;28;20575;-77
2023/01/30 00:27:49;;;;;;;24.47;12.53;;;0.40;1.00;;;;;;4990096;28;20485;-77
2023/01/30 00:30:14;;;;;;;24.37;13.07;;;0.90;1.00;;;;;;4990890;28;20433;-77
2023/01/30 00:32:40;;;;;;;20.30;12.30;;;0.60;1.00;;;;;;4990739;28;20241;-77
2023/01/30 00:35:06;;;;;;;24.43;12.43;;;0.70;1.00;;;;;;4992096;28;20179;-77
2023/01/30 00:37:31;;;;;;;23.53;14.57;;;0.80;1.00;;;;;;4988953;28;20593;-78
2023/01/30 00:39:57;;;;;;;23.33;11.57;;;0.80;1.00;;;;;;4991919;28;20438;-78
2023/01/30 00:47:54;;;;;;;23.70;12.13;;;0.60;1.00;;;;;;4988549;28;20995;-77
2023/01/30 00:50:19;;;;;;;23.40;13.10;;;1.00;1.00;;;;;;4991190;28;20462;-78
2023/01/30 00:52:45;;;;;;;22.13;12.27;;;1.10;1.00;;;;;;4989469;28;20716;-78
2023/01/30 00:55:10;;;;;;;24.97;11.27;;;1.10;1.00;;;;;;4990063;28;20183;-78
2023/01/30 00:57:36;;;;;;;24.53;12.30;;;1.20;1.00;;;;;;4991227;28;20222;-78
2023/01/30 01:00:04;;;;;;;16.00;8.30;;;1.40;1.00;;;;;;4990510;28;20249;-79
2023/01/30 01:02:30;;;;;;;22.77;12.33;;;1.30;1.00;;;;;;4988918;28;20215;-78
2023/01/30 01:04:55;;;;;;;24.43;13.80;;;1.50;1.00;;;;;;4989985;28;20449;-78
2023/01/30 01:07:21;;;;;;;21.70;12.70;;;1.80;1.00;;;;;;4988341;28;20469;-76
2023/01/30 01:09:46;;;;;;;27.13;12.17;;;1.50;1.00;;;;;;4989899;28;20199;-78
2023/01/30 01:12:12;;;;;;;23.20;12.20;;;1.80;1.00;;;;;;4989920;28;20281;-78
2023/01/30 01:14:37;;;;;;;21.13;10.83;;;1.70;1.00;;;;;;4987805;28;20183;-78
2023/01/30 01:17:03;;;;;;;22.93;11.30;;;1.70;1.00;;;;;;4987658;28;20621;-78
2023/01/30 01:19:29;;;;;;;20.00;11.50;;;1.40;1.00;;;;;;4990390;28;20191;-78
2023/01/30 01:21:54;;;;;;;19.10;10.17;;;1.40;1.00;;;;;;4989388;28;20203;-78
2023/01/30 01:24:20;;;;;;;21.10;11.90;;;1.40;1.00;;;;;;4988902;28;20566;-78
2023/01/30 01:26:45;;;;;;;25.67;13.13;;;1.40;1.00;;;;;;4989193;28;20257;-78
2023/01/30 01:29:13;;;;;;;21.47;11.90;;;1.50;1.00;;;;;;4991070;28;20266;-78
2023/01/30 01:31:38;;;;;;;23.10;11.13;;;1.40;1.00;;;;;;4988550;28;20687;-78
2023/01/30 01:34:04;;;;;;;22.30;12.20;;;1.70;1.00;;;;;;4989003;28;20470;-78
2023/01/30 01:36:29;;;;;;;22.07;12.07;;;1.40;1.00;;;;;;4987566;28;20249;-78
2023/01/30 01:38:55;;;;;;;22.37;12.10;;;1.40;1.00;;;;;;4991057;28;20321;-78
2023/01/30 01:41:20;;;;;;;22.90;11.60;;;1.50;1.00;;;;;;4989847;28;20329;-78
2023/01/30 01:44:05;;;;;;;20.17;11.63;;;1.10;1.00;;;;;;4989019;28;20413;-78
2023/01/30 01:46:45;;;;;;;21.03;10.53;;;1.50;1.00;;;;;;4988398;28;20873;-78
2023/01/30 01:49:20;;;;;;;21.77;11.07;;;1.40;1.00;;;;;;4990358;28;20480;-78
2023/01/30 01:51:50;;;;;;;19.97;10.60;;;1.40;1.00;;;;;;4988471;28;20516;-78
2023/01/30 01:54:25;;;;;;;20.13;10.90;;;1.40;1.00;;;;;;4989038;28;20443;-78
2023/01/30 01:56:50;;;;;;;20.00;10.73;;;1.50;1.00;;;;;;4982707;28;20446;-78
2023/01/30 01:59:31;;;;;;;20.50;10.43;;;1.80;1.00;;;;;;4988070;28;20809;-78
2023/01/30 02:02:02;;;;;;;17.27;9.80;;;1.60;1.00;;;;;;4984064;28;20218;-78
2023/01/30 02:07:17;;;;;;;19.90;11.57;;;1.60;1.00;;;;;;4991677;28;20468;-77
2023/01/30 02:09:43;;;;;;;19.00;10.10;;;1.60;1.00;;;;;;4984757;28;20505;-78
2023/01/30 02:12:12;;;;;;;20.97;11.50;;;1.80;1.00;;;;;;4989078;28;20964;-79
2023/01/30 02:14:38;;;;;;;19.40;9.20;;;1.80;1.00;;;;;;4988424;28;20509;-78
2023/01/30 02:17:04;;;;;;;18.57;10.70;;;1.80;1.00;;;;;;4987832;28;20569;-79
2023/01/30 02:19:47;;;;;;;20.87;10.60;;;1.80;1.00;;;;;;4983927;28;20541;-78
2023/01/30 02:22:38;;;;;;;19.40;10.97;;;1.90;1.00;;;;;;4988419;28;20215;-79
2023/01/30 02:25:28;;;;;;;20.40;10.90;;;1.80;1.00;;;;;;4982523;28;20430;-78
2023/01/30 02:28:10;;;;;;;20.70;11.27;;;1.80;1.00;;;;;;4997509;28;20849;-79
2023/01/30 02:30:44;;;;;;;23.70;11.20;;;1.80;1.00;;;;;;4987929;28;21563;-78
2023/01/30 02:33:31;;;;;;;22.03;11.20;;;1.90;1.00;;;;;;4990395;28;20430;-79
2023/01/30 02:36:02;;;;;;;24.90;10.93;;;1.70;1.00;;;;;;4986236;28;20537;-79
2023/01/30 02:38:28;;;;;;;20.73;11.33;;;1.60;1.00;;;;;;4994703;28;20532;-78
2023/01/30 02:41:05;;;;;;;21.97;11.50;;;1.50;1.00;;;;;;4987356;28;20451;-78
2023/01/30 02:43:42;;;;;;;22.17;11.30;;;1.60;1.00;;;;;;4990145;28;20191;-78
2023/01/30 02:46:11;;;;;;;23.87;12.07;;;1.60;1.00;;;;;;4988915;28;20746;-78
2023/01/30 02:49:07;;;;;;;22.03;11.60;;;1.70;1.00;;;;;;4987827;28;20489;-78
2023/01/30 02:51:35;;;;;;;23.70;12.97;;;1.60;1.00;;;;;;4988488;28;20438;-78
2023/01/30 02:54:01;;;;;;;21.80;10.07;;;1.60;1.00;;;;;;4988649;28;20438;-79
2023/01/30 02:56:27;;;;;;;22.07;12.40;;;1.50;1.00;;;;;;4987253;28;20998;-77
2023/01/30 02:59:01;;;;;;;23.73;12.13;;;1.60;1.00;;;;;;4986444;28;20253;-78
2023/01/30 03:01:32;;;;;;;23.63;12.03;;;1.60;1.00;;;;;;4987819;28;20213;-78
2023/01/30 03:04:17;;;;;;;22.00;11.80;;;1.60;1.00;;;;;;4989603;28;20936;-78
2023/01/30 03:07:23;;;;;;;21.30;11.70;;;1.70;1.00;;;;;;4984179;28;20520;-78
2023/01/30 03:10:12;;;;;;;22.07;12.20;;;1.70;1.00;;;;;;4965509;28;20497;-78
2023/01/30 03:13:03;;;;;;;24.47;12.00;;;1.70;1.00;;;;;;4988568;28;20466;-78
2023/01/30 03:15:39;;;;;;;24.07;12.10;;;1.70;1.00;;;;;;4984938;28;20480;-78
2023/01/30 03:18:06;;;;;;;23.20;13.17;;;1.60;1.00;;;;;;4987850;28;20462;-78
2023/01/30 03:20:36;;;;;;;22.40;12.30;;;1.70;1.00;;;;;;4987835;28;20493;-76
2023/01/30 03:23:02;;;;;;;22.53;12.30;;;1.70;1.00;;;;;;4988343;28;20824;-78
2023/01/30 03:25:28;;;;;;;25.97;12.17;;;1.70;1.00;;;;;;4987907;28;20446;-78
2023/01/30 03:27:54;;;;;;;23.00;12.80;;;1.70;1.00;;;;;;4990832;28;20199;-78
2023/01/30 03:30:21;;;;;;;22.33;12.07;;;1.60;1.00;;;;;;4989906;28;20182;-77
2023/01/30 03:32:46;;;;;;;22.97;12.63;;;1.60;1.00;;;;;;4992536;28;20521;-78
2023/01/30 03:35:12;;;;;;;22.13;11.20;;;1.60;1.00;;;;;;4992714;28;20458;-78
2023/01/30 03:37:38;;;;;;;24.33;12.00;;;1.70;1.00;;;;;;4990575;28;20229;-77
2023/01/30 03:40:04;;;;;;;23.50;12.73;;;1.60;1.00;;;;;;4993315;28;20244;-76
2023/01/30 03:42:30;;;;;;;25.80;12.87;;;1.60;1.00;;;;;;4991102;28;20206;-76
2023/01/30 03:44:55;;;;;;;23.57;12.97;;;1.60;1.00;;;;;;4991969;28;20436;-78
2023/01/30 03:47:21;;;;;;;21.33;11.93;;;1.60;1.00;;;;;;4989822;28;20199;-78
2023/01/30 03:49:46;;;;;;;19.20;11.57;;;1.60;1.00;;;;;;4990345;28;20187;-78
2023/01/30 03:52:12;;;;;;;23.33;12.40;;;1.60;1.00;;;;;;4992897;28;20187;-78
2023/01/30 03:54:37;;;;;;;21.90;11.27;;;1.50;1.00;;;;;;4991566;28;20569;-78
2023/01/30 03:57:03;;;;;;;23.50;12.00;;;1.50;1.00;;;;;;4991201;28;20705;-78
2023/01/30 03:59:29;;;;;;;22.47;12.37;;;1.50;1.00;;;;;;4991894;28;20241;-78
2023/01/30 04:01:54;;;;;;;19.50;11.30;;;1.60;1.00;;;;;;4991034;28;20253;-77
2023/01/30 04:04:20;;;;;;;22.23;12.93;;;1.70;1.00;;;;;;4991338;28;20202;-78
2023/01/30 04:06:45;;;;;;;20.23;11.43;;;1.60;1.00;;;;;;4989034;28;20185;-78
2023/01/30 04:09:11;;;;;;;22.07;12.20;;;1.60;1.00;;;;;;4990432;28;20189;-78
2023/01/30 04:11:36;;;;;;;23.37;13.00;;;1.60;1.00;;;;;;4989714;28;20187;-78
2023/01/30 04:14:02;;;;;;;23.87;12.73;;;1.60;1.00;;;;;;4993564;28;20221;-78
2023/01/30 04:16:27;;;;;;;23.93;11.93;;;1.50;1.00;;;;;;4991731;28;20190;-77
2023/01/30 04:18:53;;;;;;;21.63;12.07;;;1.50;1.00;;;;;;4990999;28;20183;-78
2023/01/30 04:21:19;;;;;;;24.17;12.43;;;1.60;1.00;;;;;;4989346;28;20219;-78
2023/01/30 04:23:45;;;;;;;21.30;12.00;;;1.60;1.00;;;;;;4990858;28;20340;-78
2023/01/30 04:26:12;;;;;;;21.77;11.80;;;1.50;1.00;;;;;;4991311;28;20860;-78
2023/01/30 04:28:38;;;;;;;24.30;12.70;;;1.60;1.00;;;;;;4991928;28;20261;-78
2023/01/30 04:31:05;;;;;;;19.50;11.67;;;1.60;1.00;;;;;;4990646;28;20446;-78
2023/01/30 04:33:34;;;;;;;20.90;10.77;;;1.90;1.00;;;;;;4990559;28;20893;-78
2023/01/30 04:36:00;;;;;;;21.00;10.40;;;1.60;1.00;;;;;;4980913;28;20441;-78
2023/01/30 04:38:27;;;;;;;19.93;10.90;;;1.60;1.00;;;;;;4987239;28;20470;-78
2023/01/30 04:40:55;;;;;;;18.40;10.83;;;1.60;1.00;;;;;;4991221;28;20808;-78
2023/01/30 04:43:22;;;;;;;19.27;10.00;;;1.60;1.00;;;;;;4990606;28;20878;-78
2023/01/30 04:45:48;;;;;;;20.53;10.90;;;1.60;1.00;;;;;;4990077;28;20476;-79
2023/01/30 04:48:15;;;;;;;13.00;7.40;;;1.60;1.00;;;;;;4989528;28;20466;-79
2023/01/30 04:50:42;;;;;;;20.10;11.23;;;1.60;1.00;;;;;;4988454;28;20450;-76
2023/01/30 04:53:08;;;;;;;20.33;11.03;;;1.60;1.00;;;;;;4990719;28;20443;-78
2023/01/30 04:55:34;;;;;;;23.60;12.67;;;1.60;1.00;;;;;;4989984;28;20460;-77
2023/01/30 04:58:00;;;;;;;21.60;10.43;;;1.60;1.00;;;;;;4991402;28;20537;-78
2023/01/30 05:00:25;;;;;;;20.73;11.30;;;1.90;1.00;;;;;;4989852;28;20569;-78
2023/01/30 05:02:52;;;;;;;21.63;11.23;;;1.60;1.00;;;;;;4991007;28;20206;-79
2023/01/30 05:05:17;;;;;;;25.97;14.27;;;1.60;1.00;;;;;;4991901;28;20674;-78
2023/01/30 05:07:43;;;;;;;22.80;11.80;;;1.60;1.00;;;;;;4987787;28;20516;-78
2023/01/30 05:10:09;;;;;;;21.33;11.77;;;1.90;1.00;;;;;;4990118;28;20575;-78
2023/01/30 05:12:35;;;;;;;24.67;12.93;;;1.70;1.00;;;;;;4989489;28;20269;-77
2023/01/30 05:15:00;;;;;;;20.97;10.57;;;1.80;1.00;;;;;;4989589;28;20462;-78
2023/01/30 05:17:26;;;;;;;21.93;11.43;;;1.70;1.00;;;;;;4989404;28;20211;-78
2023/01/30 05:19:51;;;;;;;20.80;11.20;;;1.70;1.00;;;;;;4989386;28;20187;-77
2023/01/30 05:22:17;;;;;;;20.10;10.97;;;1.70;1.00;;;;;;4990132;28;20290;-78
2023/01/30 05:24:43;;;;;;;18.43;10.57;;;1.70;1.00;;;;;;4988982;28;20187;-78
2023/01/30 05:27:08;;;;;;;17.00;10.33;;;1.80;1.00;;;;;;4989120;28;20709;-78
2023/01/30 05:29:34;;;;;;;19.13;9.97;;;1.70;1.00;;;;;;4987109;28;20443;-78
2023/01/30 05:31:59;;;;;;;17.60;9.10;;;2.00;1.00;;;;;;4990535;28;20199;-79
2023/01/30 05:34:25;;;;;;;19.97;10.20;;;1.80;1.00;;;;;;4988082;28;20253;-78
2023/01/30 05:36:50;;;;;;;20.87;10.80;;;1.70;1.00;;;;;;4987970;28;20219;-78
2023/01/30 05:39:16;;;;;;;12.60;6.90;;;1.80;1.00;;;;;;4989317;28;20206;-78
2023/01/30 05:41:41;;;;;;;20.10;12.03;;;1.70;1.00;;;;;;4989837;28;20217;-78
2023/01/30 05:44:07;;;;;;;16.20;10.30;;;1.70;1.00;;;;;;4989139;28;20398;-78
2023/01/30 05:46:34;;;;;;;18.83;10.00;;;1.70;1.00;;;;;;4988621;28;20211;-78
2023/01/30 05:48:59;;;;;;;14.83;7.13;;;1.90;1.00;;;;;;4987828;28;20816;-78
2023/01/30 05:51:26;;;;;;;16.70;9.47;;;2.10;1.00;;;;;;4989734;28;20183;-78
2023/01/30 05:53:53;;;;;;;16.23;9.80;;;1.70;1.00;;;;;;4989868;28;20592;-77
2023/01/30 05:56:19;;;;;;;17.90;10.03;;;1.70;1.00;;;;;;4988059;28;20458;-78
2023/01/30 05:58:52;;;;;;;16.20;9.50;;;1.80;1.00;;;;;;4988701;28;20548;-78
2023/01/30 06:01:18;;;;;;;19.30;9.90;;;1.80;1.00;;;;;;4988438;28;20246;-78
2023/01/30 06:03:43;;;;;;;17.17;9.40;;;1.80;1.00;;;;;;4988364;28;20544;-78
2023/01/30 06:06:10;;;;;;;18.13;10.00;;;1.70;1.00;;;;;;4988181;28;20275;-78
2023/01/30 06:08:35;;;;;;;12.93;7.80;;;1.80;1.00;;;;;;4990136;28;20211;-78
2023/01/30 06:11:05;;;;;;;16.17;9.57;;;1.70;1.00;;;;;;4991319;28;20464;-78
2023/01/30 06:13:30;;;;;;;20.90;9.57;;;1.70;1.00;;;;;;4988392;28;20222;-78
2023/01/30 06:15:56;;;;;;;18.13;9.73;;;1.70;1.00;;;;;;4988966;28;20470;-77
2023/01/30 06:18:22;;;;;;;15.63;9.60;;;1.70;1.00;;;;;;4989049;28;20195;-78
2023/01/30 06:20:49;;;;;;;15.20;9.23;;;2.00;1.00;;;;;;4987982;28;20262;-78
2023/01/30 06:23:15;;;;;;;16.50;9.70;;;1.70;1.00;;;;;;4988402;28;20258;-77
2023/01/30 06:25:45;;;;;;;18.67;8.93;;;1.70;1.00;;;;;;4987358;28;20469;-77
2023/01/30 06:28:11;;;;;;;18.93;9.33;;;1.70;1.00;;;;;;4987641;28;20199;-77
2023/01/30 06:30:36;;;;;;;15.03;8.23;;;1.60;1.00;;;;;;4985929;28;20544;-77
2023/01/30 06:33:02;;;;;;;18.43;10.20;;;1.60;1.00;;;;;;4989777;28;20828;-78
2023/01/30 06:35:27;;;;;;;16.57;9.50;;;1.60;1.00;;;;;;4988901;28;20183;-78
2023/01/30 06:37:53;;;;;;;16.40;9.57;;;1.60;1.00;;;;;;4988054;28;20215;-77
2023/01/30 06:40:18;;;;;;;13.23;7.67;;;1.60;1.00;;;;;;4987847;28;20286;-78
2023/01/30 06:42:48;;;;;;;18.33;8.90;;;1.60;1.00;;;;;;4988577;28;20218;-78
2023/01/30 06:45:16;;;;;;;18.03;10.60;;;1.60;1.00;;;;;;4989529;28;20183;-78
2023/01/30 06:47:50;;;;;;;17.23;9.20;;;1.70;1.00;;;;;;4987842;28;20450;-77
2023/01/30 06:50:17;;;;;;;17.80;9.57;;;1.70;1.00;;;;;;4986760;28;20960;-79
2023/01/30 06:52:45;;;;;;;14.67;7.83;;;1.70;1.00;;;;;;4989458;28;20430;-78
2023/01/30 06:55:12;;;;;;;16.90;8.60;;;1.70;1.00;;;;;;4986900;28;20450;-78
2023/01/30 06:57:37;;;;;;;16.93;9.73;;;1.70;1.00;;;;;;4988191;28;20473;-78
2023/01/30 07:00:05;;;;;;;17.27;8.90;;;1.80;1.00;;;;;;4988121;28;20450;-78
2023/01/30 07:02:34;;;;;;;18.93;10.20;;;1.80;1.00;;;;;;4988311;28;20273;-78
2023/01/30 07:05:04;;;;;;;17.80;9.90;;;1.80;1.00;;;;;;4991733;28;20429;-78
2023/01/30 07:07:30;;;;;;;16.80;9.00;;;1.90;1.00;;;;;;4989354;28;20473;-78
2023/01/30 07:09:56;;;;;;;13.73;7.37;;;1.90;1.00;;;;;;4990502;28;20439;-78
2023/01/30 07:12:22;;;;;;;12.13;7.30;;;1.80;1.00;;;;;;4993555;28;20446;-78
2023/01/30 07:14:47;;;;;;;13.73;7.93;;;2.10;1.00;;;;;;4991134;28;20999;-78
2023/01/30 07:17:13;;;;;;;6.47;4.07;;;1.90;1.00;;;;;;4991610;28;20508;-78
2023/01/30 07:19:39;;;;;;;15.97;9.27;;;2.20;1.00;;;;;;4991800;28;20232;-78
2023/01/30 07:22:04;;;;;;;15.20;8.00;;;1.80;1.00;;;;;;4991899;28;20828;-77
2023/01/30 07:24:30;;;;;;;13.53;7.70;;;1.90;1.00;;;;;;4991131;28;20202;-79
2023/01/30 07:26:56;;;;;;;15.67;7.27;;;1.80;1.00;;;;;;4990606;28;20214;-77
2023/01/30 07:29:21;;;;;;;12.70;7.90;;;2.10;1.00;;;;;;4991824;28;20201;-79
2023/01/30 07:31:47;;;;;;;13.37;5.37;;;1.80;1.00;;;;;;4990790;28;20183;-78
2023/01/30 07:34:12;;;;;;;19.53;8.77;;;1.80;1.00;;;;;;4987729;28;20187;-78
2023/01/30 07:36:38;;;;;;;14.03;8.40;;;1.80;1.00;;;;;;4988971;28;20266;-78
2023/01/30 07:39:04;;;;;;;18.20;9.40;;;1.80;1.00;;;;;;4989781;28;20189;-78
2023/01/30 07:41:30;;;;;;;15.60;8.40;;;1.80;1.00;;;;;;4990723;28;20455;-79
2023/01/30 07:43:55;;;;;;;17.50;9.77;;;1.90;1.00;;;;;;4986196;28;20183;-78
2023/01/30 07:46:21;;;;;;;15.37;9.37;;;2.00;1.00;;;;;;4990718;28;20183;-79
2023/01/30 07:48:46;;;;;;;15.07;9.80;;;2.00;1.00;;;;;;4988659;28;20304;-79
2023/01/30 07:51:12;;;;;;;15.80;9.33;;;2.10;1.00;;;;;;4990631;28;20179;-78
2023/01/30 07:53:38;;;;;;;17.07;9.20;;;2.10;1.00;;;;;;4989997;28;20187;-79
2023/01/30 07:56:08;;;;;;;14.43;8.73;;;2.10;1.00;;;;;;4991310;28;20190;-79
2023/01/30 07:58:34;;;;;;;15.47;9.80;;;2.10;1.00;;;;;;4989180;28;20242;-79
2023/01/30 08:00:59;;;;;;;12.80;6.93;;;2.10;1.00;;;;;;4992420;28;20469;-78
2023/01/30 08:03:25;;;;;;;12.90;7.10;;;2.00;1.00;;;;;;4990809;28;20226;-78
2023/01/30 08:05:52;;;;;;;17.13;9.03;;;2.00;1.00;;;;;;4991124;28;20236;-78
2023/01/30 08:08:17;;;;;;;14.80;7.90;;;2.00;1.00;;;;;;4988115;28;20739;-78
2023/01/30 08:10:43;;;;;;;14.00;7.97;;;2.00;1.00;;;;;;4984282;28;20458;-79
2023/01/30 08:13:09;;;;;;;15.87;9.10;;;2.00;1.00;;;;;;4989829;28;20180;-79
2023/01/30 08:15:34;;;;;;;21.10;9.33;;;2.00;1.00;;;;;;4991279;28;20274;-79
2023/01/30 08:18:00;;;;;;;15.70;9.60;;;2.00;1.00;;;;;;4988614;28;20199;-79
2023/01/30 08:20:26;;;;;;;17.97;10.30;;;2.00;1.00;;;;;;4986218;28;20191;-79
2023/01/30 08:22:53;;;;;;;12.70;7.70;;;2.10;1.00;;;;;;4995414;28;20554;-79
2023/01/30 08:25:18;;;;;;;17.73;9.67;;;2.10;1.00;;;;;;4990406;28;20442;-79
2023/01/30 08:27:44;;;;;;;17.07;9.73;;;2.20;1.00;;;;;;4987159;28;21112;-79
2023/01/30 08:30:10;;;;;;;12.37;8.07;;;2.20;1.00;;;;;;4981325;28;20175;-79
2023/01/30 08:32:36;;;;;;;15.40;9.27;;;2.20;1.00;;;;;;4973222;28;20250;-79
2023/01/30 08:35:01;;;;;;;15.67;9.20;;;2.10;1.00;;;;;;4998979;28;20430;-78
2023/01/30 08:37:28;;;;;;;15.33;9.50;;;2.10;1.00;;;;;;4986703;28;20222;-78
2023/01/30 08:39:53;;;;;;;15.87;8.50;;;2.10;1.00;;;;;;4988398;28;20183;-79
2023/01/30 08:42:19;;;;;;;19.67;9.30;;;2.10;1.00;;;;;;4987040;28;20524;-78
2023/01/30 08:44:45;;;;;;;13.40;8.63;;;2.20;1.00;;;;;;4987281;28;20665;-78
2023/01/30 08:47:10;;;;;;;18.00;10.00;;;2.20;1.00;;;;;;4985865;28;20204;-78
2023/01/30 08:49:36;;;;;;;14.30;8.43;;;2.10;1.00;;;;;;4992871;28;20183;-79
2023/01/30 08:52:01;;;;;;;18.10;9.43;;;2.10;1.00;;;;;;4987122;28;20661;-79
2023/01/30 08:54:27;;;;;;;16.07;9.50;;;2.10;1.00;;;;;;4984295;28;20218;-79
2023/01/30 08:56:52;;;;;;;15.37;9.03;;;2.20;1.00;;;;;;4984924;28;20229;-79
2023/01/30 08:59:18;;;;;;;19.77;11.13;;;2.20;1.00;;;;;;4988544;28;20328;-79
2023/01/30 09:01:43;;;;;;;17.77;9.33;;;2.30;1.00;;;;;;4989373;28;20203;-81
2023/01/30 09:04:09;;;;;;;16.30;8.23;;;2.40;1.00;;;;;;4991309;28;20183;-80
2023/01/30 09:06:34;;;;;;;14.57;8.47;;;2.40;1.00;;;;;;4990457;28;20712;-80
2023/01/30 09:09:00;;;;;;;18.23;9.60;;;2.50;1.00;;;;;;4991035;28;20187;-81
2023/01/30 09:11:25;;;;;;;16.63;10.07;;;2.40;1.00;;;;;;4992427;28;20187;-80
2023/01/30 09:13:51;;;;;;;17.87;9.77;;;2.60;1.00;;;;;;4993340;28;20195;-79
2023/01/30 09:16:16;;;;;;;17.30;10.10;;;2.50;1.00;;;;;;4989994;28;20665;-80
2023/01/30 09:18:43;;;;;;;16.47;9.27;;;2.40;1.00;;;;;;4989643;28;20206;-80
2023/01/30 09:21:10;;;;;;;18.23;9.80;;;2.40;1.00;;;;;;4988327;28;20222;-79
2023/01/30 09:23:36;;;;;;;18.03;10.10;;;2.50;1.00;;;;;;4990497;28;20442;-81
2023/01/30 09:26:04;;;;;;;15.00;9.07;;;2.50;1.00;;;;;;4989282;28;20971;-80
2023/01/30 09:28:29;;;;;;;18.43;9.23;;;2.50;1.00;;;;;;4988241;28;20485;-79
2023/01/30 09:30:59;;;;;;;16.13;9.33;;;2.40;1.00;;;;;;4989998;28;20474;-80
2023/01/30 09:33:25;;;;;;;11.53;7.17;;;2.50;1.00;;;;;;4988164;28;20266;-79
2023/01/30 09:35:51;;;;;;;15.43;8.77;;;2.40;1.00;;;;;;4989833;28;20508;-79
2023/01/30 09:38:18;;;;;;;14.57;8.53;;;2.50;1.00;;;;;;4991740;28;20461;-79
2023/01/30 09:41:04;;;;;;;21.60;10.60;;;2.50;1.00;;;;;;4991373;28;20191;-81
2023/01/30 09:43:45;;;;;;;19.43;9.60;;;2.70;1.00;;;;;;4984326;28;20454;-79
2023/01/30 09:46:24;;;;;;;15.20;9.13;;;2.70;1.00;;;;;;4990828;28;20438;-81
2023/01/30 09:49:20;;;;;;;17.17;10.17;;;2.80;1.00;;;;;;4990187;28;20953;-80
2023/01/30 09:51:59;;;;;;;15.33;9.30;;;2.80;1.00;;;;;;4989362;28;20573;-80
2023/01/30 09:54:30;;;;;;;15.27;8.77;;;2.90;1.00;;;;;;4985565;28;20442;-80
2023/01/30 09:57:08;;;;;;;16.90;8.53;;;2.90;1.00;;;;;;4987820;28;20457;-79
2023/01/30 10:00:02;;;;;;;14.63;9.43;;;2.90;1.00;;;;;;4987622;28;20446;-80
2023/01/30 10:02:48;;;;;;;16.10;8.90;;;2.90;1.00;;;;;;4986361;28;20848;-82
2023/01/30 10:05:14;;;;;;;15.80;9.07;;;3.00;1.00;;;;;;4989429;28;20461;-80
2023/01/30 10:08:14;;;;;;;14.37;8.57;;;3.10;1.00;;;;;;4987891;28;20976;-82
2023/01/30 10:11:06;;;;;;;14.87;8.97;;;3.10;1.00;;;;;;4985306;28;20611;-82
2023/01/30 10:13:46;;;;;;;17.60;10.07;;;3.10;1.00;;;;;;4969087;28;20450;-80
2023/01/30 10:16:25;;;;;;;13.70;8.73;;;3.20;1.00;;;;;;4989800;28;20961;-81
2023/01/30 10:19:17;;;;;;;13.57;7.77;;;3.40;1.00;;;;;;4990525;28;20461;-81
2023/01/30 10:21:55;;;;;;;11.53;7.37;;;3.40;1.00;;;;;;4981538;28;20474;-80
2023/01/30 10:24:37;;;;;;;12.13;7.20;;;3.30;1.00;;;;;;4991384;28;20422;-81
2023/01/30 10:27:09;;;;;;;15.00;8.67;;;3.40;1.00;;;;;;4987172;28;20552;-80
2023/01/30 10:29:38;;;;;;;9.93;6.63;;;3.40;1.00;;;;;;4990728;28;20434;-80
2023/01/30 10:32:25;;;;;;;13.67;8.03;;;3.50;1.00;;;;;;4988425;28;20475;-81
2023/01/30 10:34:55;;;;;;;14.40;7.60;;;3.50;1.00;;;;;;4990435;28;20504;-80
2023/01/30 10:37:32;;;;;;;10.70;5.93;;;3.50;1.00;;;;;;4987142;28;20951;-80
2023/01/30 10:40:24;;;;;;;9.60;6.70;;;3.50;1.00;;;;;;4987914;28;20445;-80
2023/01/30 10:43:05;;;;;;;14.20;6.90;;;3.90;1.00;;;;;;4989234;28;20469;-80
2023/01/30 10:45:47;;;;;;;10.60;5.63;;;3.90;1.00;;;;;;4988236;28;20844;-79
2023/01/30 10:48:19;;;;;;;12.37;7.30;;;3.90;1.00;;;;;;4986935;28;22324;-79
2023/01/30 10:50:55;;;;;;;10.93;6.83;;;3.90;1.00;;;;;;4989359;28;20521;-78
2023/01/30 10:53:34;;;;;;;10.80;5.90;;;3.90;1.00;;;;;;4981219;28;20533;-79
2023/01/30 10:56:28;;;;;;;10.50;6.67;;;3.80;1.00;;;;;;4989329;28;20437;-79
2023/01/30 10:59:25;;;;;;;12.67;7.77;;;3.70;1.00;;;;;;4996443;28;20513;-78
2023/01/30 11:02:23;;;;;;;13.00;7.60;;;3.90;1.00;;;;;;4986794;28;20969;-79
2023/01/30 11:04:59;;;;;;;12.47;8.00;;;4.10;1.00;;;;;;4981096;28;20450;-79
2023/01/30 11:07:30;;;;;;;13.20;7.50;;;4.10;1.00;;;;;;4985688;28;20457;-79
2023/01/30 11:09:57;;;;;;;11.47;7.03;;;4.10;1.00;;;;;;4984466;28;20442;-78
2023/01/30 11:12:23;;;;;;;14.27;7.37;;;4.00;1.00;;;;;;4990306;28;20893;-79
2023/01/30 11:14:50;;;;;;;13.17;7.87;;;4.00;1.00;;;;;;4989109;28;20497;-80
2023/01/30 11:17:17;;;;;;;15.40;8.17;;;3.90;1.00;;;;;;4989373;28;20211;-80
2023/01/30 11:19:44;;;;;;;10.40;6.47;;;4.00;1.00;;;;;;4991193;28;20430;-79
2023/01/30 11:22:13;;;;;;;11.03;6.47;;;3.80;1.00;;;;;;4987470;28;20896;-79
2023/01/30 11:24:40;;;;;;;12.33;7.30;;;3.70;1.00;;;;;;4989339;28;20461;-79
2023/01/30 11:27:35;;;;;;;12.23;7.53;;;3.70;1.00;;;;;;4985523;28;20992;-80
2023/01/30 11:30:18;;;;;;;12.17;7.90;;;3.70;1.00;;;;;;4973350;28;20530;-80
2023/01/30 11:32:47;;;;;;;14.57;8.13;;;3.80;1.00;;;;;;4987384;28;20453;-80
2023/01/30 11:35:23;;;;;;;13.57;7.33;;;3.90;1.00;;;;;;4989245;28;20442;-79
2023/01/30 11:37:52;;;;;;;12.60;7.63;;;3.90;1.00;;;;;;4982813;28;20477;-80
2023/01/30 11:40:18;;;;;;;12.87;8.30;;;3.90;1.00;;;;;;4982896;28;20442;-80
2023/01/30 11:42:45;;;;;;;13.10;7.70;;;4.00;1.00;;;;;;4986541;28;20466;-79
2023/01/30 11:45:11;;;;;;;12.03;7.73;;;4.00;1.00;;;;;;4988526;28;20566;-79
2023/01/30 11:47:45;;;;;;;14.27;7.87;;;3.90;1.00;;;;;;4992069;28;21035;-80
2023/01/30 11:50:18;;;;;;;14.80;8.40;;;4.00;1.00;;;;;;4993315;28;20956;-79
2023/01/30 11:52:45;;;;;;;14.60;7.60;;;4.10;1.00;;;;;;4994548;28;20868;-79
2023/01/30 11:55:17;;;;;;;15.23;8.33;;;4.20;1.00;;;;;;4998061;28;21022;-80
2023/01/30 11:57:47;;;;;;;15.33;8.13;;;4.10;1.00;;;;;;5002191;28;20461;-80
2023/01/30 12:00:17;;;;;;;14.23;8.80;;;4.00;1.00;;;;;;4996622;28;20439;-79
2023/01/30 12:02:46;;;;;;;11.27;7.57;;;4.00;1.00;;;;;;4996362;28;20465;-79
2023/01/30 12:05:29;;;;;;;14.70;8.40;;;4.00;1.00;;;;;;4992378;28;20434;-80
2023/01/30 12:08:22;;;;;;;12.70;7.47;;;3.80;1.00;;;;;;4991727;28;20497;-79
2023/01/30 12:10:58;;;;;;;12.07;7.87;;;3.90;1.00;;;;;;4992180;28;20461;-80
2023/01/30 12:13:37;;;;;;;10.90;7.43;;;4.00;1.00;;;;;;4988956;28;20831;-79
2023/01/30 12:16:02;;;;;;;13.53;7.87;;;4.10;1.00;;;;;;4994613;28;20972;-79
2023/01/30 12:18:38;;;;;;;13.30;8.07;;;4.10;1.00;;;;;;4992483;28;20549;-80
2023/01/30 12:21:17;;;;;;;12.60;7.60;;;4.10;1.00;;;;;;4993052;28;20537;-79
2023/01/30 12:23:57;;;;;;;13.10;7.73;;;4.10;1.00;;;;;;4989103;28;20592;-79
2023/01/30 12:26:36;;;;;;;10.27;6.90;;;4.00;1.00;;;;;;4987381;28;20442;-80
2023/01/30 12:29:29;;;;;;;12.77;7.17;;;4.10;1.00;;;;;;4987430;28;20456;-78
2023/01/30 12:32:16;;;;;;;13.10;7.37;;;4.30;1.00;;;;;;4978712;28;20429;-82
2023/01/30 12:34:45;;;;;;;13.00;7.97;;;4.40;1.00;;;;;;4992672;28;20884;-80
2023/01/30 12:37:31;;;;;;;11.20;6.67;;;4.60;1.00;;;;;;5004057;28;20689;-80
2023/01/30 12:40:14;;;;;;;12.10;7.30;;;4.40;1.00;;;;;;4989886;28;20576;-80
2023/01/30 12:43:02;;;;;;;12.83;7.40;;;4.40;1.00;;;;;;4990900;28;20472;-80
2023/01/30 12:45:32;;;;;;;12.63;7.77;;;4.40;1.00;;;;;;4975985;28;20479;-81
2023/01/30 12:48:13;;;;;;;9.30;6.77;;;4.50;1.00;;;;;;4993098;28;20450;-81
2023/01/30 12:51:07;;;;;;;13.40;7.60;;;4.70;1.00;;;;;;4985931;28;20589;-81
2023/01/30 12:53:50;;;;;;;11.23;6.67;;;4.80;1.00;;;;;;4984959;28;20509;-80
2023/01/30 12:56:42;;;;;;;10.50;5.87;;;4.80;1.00;;;;;;4989336;28;20430;-81
2023/01/30 12:59:23;;;;;;;9.70;6.77;;;4.70;1.00;;;;;;4990155;28;20474;-80
2023/01/30 13:02:28;;;;;;;9.03;6.13;;;5.00;1.00;;;;;;4989922;28;20474;-82
2023/01/30 13:05:26;;;;;;;8.20;5.40;;;5.20;1.00;;;;;;4988360;28;20952;-80
2023/01/30 13:08:03;;;;;;;9.37;6.20;;;5.30;1.00;;;;;;4988972;28;20450;-81
2023/01/30 13:10:50;;;;;;;8.30;5.60;;;5.10;1.00;;;;;;4985034;28;20700;-80
2023/01/30 13:13:38;;;;;;;10.07;6.60;;;5.00;1.00;;;;;;4990418;28;20473;-80
2023/01/30 13:16:14;;;;;;;9.30;6.47;;;5.00;1.00;;;;;;4990460;28;20948;-80
2023/01/30 13:18:47;;;;;;;10.73;5.67;;;5.00;1.00;;;;;;4989068;28;20641;-80